Time;durP1;ratioP1;P1;durP2;ratioP2;P2;SDS_P1;SDS_P2;PMS_P1;PMS_P2;Temp;Humidity;BMP_temperature;BMP_pressure;BME280_temperature;BME280_humidity;BME280_pressure;Samples;Min_cycle;Max_cycle;Signal;HPM_P1;HPM_P2
2022/06/10 00:01:17;;;;;;;3.85;2.70;;;;;;;;;;4972492;28;20062;-68
2022/06/10 00:03:42;;;;;;;5.93;2.85;;;;;;;;;;4974826;28;20090;-68
2022/06/10 00:06:11;;;;;;;4.10;3.10;;;;;;;;;;4975885;28;20059;-68
2022/06/10 00:08:41;;;;;;;4.20;2.70;;;;;;;;;;4975802;28;20051;-68
2022/06/10 00:11:08;;;;;;;5.63;2.90;;;;;;;;;;4975823;28;20118;-68
2022/06/10 00:13:37;;;;;;;4.50;3.13;;;;;;;;;;4975737;28;20533;-67
2022/06/10 00:16:03;;;;;;;4.85;3.10;;;;;;;;;;4975375;28;20456;-67
2022/06/10 00:18:31;;;;;;;4.25;2.83;;;;;;;;;;4992000;28;20480;-67
2022/06/10 00:20:57;;;;;;;3.75;3.03;;;;;;;;;;4995059;28;20416;-68
2022/06/10 00:23:23;;;;;;;4.90;2.58;;;;;;;;;;4994894;28;20471;-68
2022/06/10 00:25:49;;;;;;;3.17;2.58;;;;;;;;;;4994909;28;20022;-68
2022/06/10 00:28:14;;;;;;;4.45;2.60;;;;;;;;;;4994730;28;20022;-66
2022/06/10 00:30:41;;;;;;;4.72;2.42;;;;;;;;;;4994897;28;20407;-66
2022/06/10 00:33:07;;;;;;;4.63;2.65;;;;;;;;;;4994866;28;20538;-66
2022/06/10 00:35:33;;;;;;;3.20;2.33;;;;;;;;;;4994789;28;20084;-66
2022/06/10 00:37:59;;;;;;;6.65;2.63;;;;;;;;;;4994833;28;20026;-68
2022/06/10 00:40:29;;;;;;;2.67;2.22;;;;;;;;;;4994383;28;20033;-68
2022/06/10 00:42:56;;;;;;;2.70;2.15;;;;;;;;;;4994618;28;20033;-67
2022/06/10 00:45:50;;;;;;;3.55;2.50;;;;;;;;;;4994637;28;20030;-68
2022/06/10 00:48:20;;;;;;;3.53;2.38;;;;;;;;;;4994426;28;20065;-67
2022/06/10 00:50:47;;;;;;;4.03;2.60;;;;;;;;;;4994431;28;20387;-66
2022/06/10 00:53:16;;;;;;;5.70;2.78;;;;;;;;;;4994859;28;20027;-67
2022/06/10 00:55:45;;;;;;;3.30;2.80;;;;;;;;;;4994860;28;20035;-68
2022/06/10 00:58:40;;;;;;;4.88;3.30;;;;;;;;;;4995000;28;20058;-66
2022/06/10 01:01:07;;;;;;;3.47;2.85;;;;;;;;;;4994385;28;20038;-68
2022/06/10 01:03:33;;;;;;;5.03;3.40;;;;;;;;;;4994717;28;20478;-68
2022/06/10 01:06:00;;;;;;;5.47;3.38;;;;;;;;;;4994818;28;20080;-67
2022/06/10 01:08:26;;;;;;;5.20;3.28;;;;;;;;;;4994911;28;20345;-67
2022/06/10 01:10:57;;;;;;;5.47;3.70;;;;;;;;;;4994531;28;20026;-68
2022/06/10 01:13:28;;;;;;;4.88;3.50;;;;;;;;;;4993885;28;20517;-69
2022/06/10 01:16:04;;;;;;;6.82;4.60;;;;;;;;;;4993831;28;20061;-66
2022/06/10 01:18:35;;;;;;;5.25;4.10;;;;;;;;;;4993769;28;20459;-68
2022/06/10 01:21:24;;;;;;;7.03;4.68;;;;;;;;;;4994031;28;20097;-67
2022/06/10 01:24:10;;;;;;;6.20;4.63;;;;;;;;;;4994261;28;20037;-69
2022/06/10 01:29:46;;;;;;;5.93;4.70;;;;;;;;;;4994487;28;20401;-66
2022/06/10 01:32:30;;;;;;;8.25;4.70;;;;;;;;;;4994505;28;20439;-67
2022/06/10 01:35:23;;;;;;;7.85;4.70;;;;;;;;;;4994131;28;20026;-67
2022/06/10 01:38:00;;;;;;;5.57;4.30;;;;;;;;;;4994433;28;20034;-66
2022/06/10 01:40:51;;;;;;;6.72;4.43;;;;;;;;;;4994371;28;20038;-68
2022/06/10 01:43:23;;;;;;;5.18;3.70;;;;;;;;;;4993858;28;20026;-69
2022/06/10 01:46:05;;;;;;;5.57;3.85;;;;;;;;;;4993485;28;20053;-68
2022/06/10 01:48:39;;;;;;;6.43;3.63;;;;;;;;;;4993492;28;20041;-68
2022/06/10 01:51:09;;;;;;;5.30;3.65;;;;;;;;;;4993582;28;20030;-69
2022/06/10 01:53:40;;;;;;;5.38;3.20;;;;;;;;;;4993507;28;20483;-69
2022/06/10 01:56:11;;;;;;;6.72;3.28;;;;;;;;;;4993808;28;20057;-66
2022/06/10 01:58:42;;;;;;;5.05;3.42;;;;;;;;;;4993970;28;20030;-67
2022/06/10 02:01:27;;;;;;;5.00;3.47;;;;;;;;;;4994016;28;20026;-65
2022/06/10 02:04:05;;;;;;;4.90;3.20;;;;;;;;;;4993710;28;20034;-66
2022/06/10 02:06:46;;;;;;;7.60;3.53;;;;;;;;;;4993696;28;20031;-67
2022/06/10 02:09:18;;;;;;;8.30;3.72;;;;;;;;;;4993495;28;20130;-66
2022/06/10 02:11:52;;;;;;;5.65;3.28;;;;;;;;;;4993798;28;20088;-67
2022/06/10 02:14:27;;;;;;;5.93;3.42;;;;;;;;;;4992970;28;20030;-67
2022/06/10 02:16:53;;;;;;;6.43;3.97;;;;;;;;;;4992714;28;20082;-68
2022/06/10 02:19:35;;;;;;;7.30;3.58;;;;;;;;;;4992977;28;20038;-68
2022/06/10 02:22:06;;;;;;;4.35;3.50;;;;;;;;;;4992973;28;20034;-68
2022/06/10 02:24:41;;;;;;;5.60;3.22;;;;;;;;;;4993269;28;20054;-67
2022/06/10 02:27:11;;;;;;;5.10;3.38;;;;;;;;;;4993296;28;20428;-68
2022/06/10 02:29:49;;;;;;;7.90;3.83;;;;;;;;;;4993322;28;20037;-67
2022/06/10 02:32:14;;;;;;;5.20;3.30;;;;;;;;;;4993447;28;20357;-67
2022/06/10 02:34:40;;;;;;;4.75;3.30;;;;;;;;;;4993239;28;20057;-67
2022/06/10 02:37:31;;;;;;;5.53;3.00;;;;;;;;;;4993348;28;20101;-67
2022/06/10 02:40:01;;;;;;;;;;;;;;;;;;4993649;28;20050;-68
2022/06/10 02:42:29;;;;;;;3.75;2.70;;;;;;;;;;4993257;28;19920;-67
2022/06/10 02:45:06;;;;;;;4.60;3.40;;;;;;;;;;4992597;28;20027;-67
2022/06/10 02:47:31;;;;;;;4.22;3.08;;;;;;;;;;4992619;28;20034;-67
2022/06/10 02:49:57;;;;;;;7.43;3.20;;;;;;;;;;4992568;28;20542;-67
2022/06/10 02:52:30;;;;;;;4.72;3.25;;;;;;;;;;4992768;28;20375;-67
2022/06/10 02:54:56;;;;;;;4.82;3.00;;;;;;;;;;4993067;28;20036;-67
2022/06/10 03:01:11;;;;;;;5.68;3.10;;;;;;;;;;4993121;28;20375;-67
2022/06/10 03:03:10;;;;;;;6.22;3.33;;;;;;;;;;4993191;28;20128;-67
2022/06/10 03:05:40;;;;;;;6.15;3.17;;;;;;;;;;4993098;28;20341;-67
2022/06/10 03:08:08;;;;;;;7.57;3.00;;;;;;;;;;4992916;28;20054;-67
2022/06/10 03:10:48;;;;;;;6.43;3.28;;;;;;;;;;4993028;28;20049;-67
2022/06/10 03:13:26;;;;;;;5.47;3.38;;;;;;;;;;4992526;28;20487;-67
2022/06/10 03:15:54;;;;;;;5.15;3.10;;;;;;;;;;4992172;28;20047;-67
2022/06/10 03:18:42;;;;;;;4.85;3.45;;;;;;;;;;4992084;28;20364;-68
2022/06/10 03:21:37;;;;;;;4.88;3.30;;;;;;;;;;4992059;28;20450;-68
2022/06/10 03:24:30;;;;;;;4.20;2.90;;;;;;;;;;4992836;28;20038;-67
2022/06/10 03:27:24;;;;;;;12.85;4.90;;;;;;;;;;4992617;28;20030;-67
2022/06/10 03:29:56;;;;;;;6.50;3.67;;;;;;;;;;4992809;28;20031;-67
2022/06/10 03:32:36;;;;;;;10.57;3.60;;;;;;;;;;4992870;28;20045;-67
2022/06/10 03:35:21;;;;;;;8.10;3.67;;;;;;;;;;4992705;28;20468;-65
2022/06/10 03:37:48;;;;;;;7.85;3.33;;;;;;;;;;4995485;28;20045;-67
2022/06/10 03:40:23;;;;;;;14.77;3.90;;;;;;;;;;4996424;28;20018;-66
2022/06/10 03:42:52;;;;;;;16.73;4.07;;;;;;;;;;4995700;28;20046;-67
2022/06/10 03:45:23;;;;;;;9.60;3.45;;;;;;;;;;4995649;28;20027;-67
2022/06/10 03:47:49;;;;;;;10.07;3.20;;;;;;;;;;4995717;28;20042;-67
2022/06/10 03:50:23;;;;;;;5.60;3.50;;;;;;;;;;4994226;28;20050;-67
2022/06/10 03:52:48;;;;;;;6.20;3.17;;;;;;;;;;4995701;28;20061;-67
2022/06/10 03:55:17;;;;;;;6.43;3.45;;;;;;;;;;4995729;28;20038;-67
2022/06/10 03:57:43;;;;;;;5.20;3.53;;;;;;;;;;4995868;28;20032;-67
2022/06/10 04:00:15;;;;;;;6.60;3.50;;;;;;;;;;4995440;28;20053;-65
2022/06/10 04:02:40;;;;;;;8.70;3.20;;;;;;;;;;4995336;28;20030;-67
2022/06/10 04:05:08;;;;;;;4.22;3.15;;;;;;;;;;4995321;28;20033;-65
2022/06/10 04:07:34;;;;;;;5.38;3.30;;;;;;;;;;4995648;28;20026;-64
2022/06/10 04:09:59;;;;;;;5.63;3.22;;;;;;;;;;4995928;28;20053;-65
2022/06/10 04:12:26;;;;;;;7.13;3.58;;;;;;;;;;4995857;28;20187;-66
2022/06/10 04:14:52;;;;;;;4.72;3.08;;;;;;;;;;4995725;28;20037;-67
2022/06/10 04:17:18;;;;;;;5.75;2.95;;;;;;;;;;4995116;28;20030;-67
2022/06/10 04:19:44;;;;;;;5.72;2.85;;;;;;;;;;4995423;28;20349;-65
2022/06/10 04:22:10;;;;;;;5.10;2.90;;;;;;;;;;4995645;28;20031;-67
2022/06/10 04:24:36;;;;;;;3.67;2.47;;;;;;;;;;4995495;28;20101;-67
2022/06/10 04:27:02;;;;;;;4.13;2.38;;;;;;;;;;4995664;28;20309;-67
2022/06/10 04:29:28;;;;;;;5.43;3.08;;;;;;;;;;4994978;28;20038;-67
2022/06/10 04:31:53;;;;;;;3.80;2.53;;;;;;;;;;4994689;28;20536;-67
2022/06/10 04:34:20;;;;;;;6.15;2.90;;;;;;;;;;4994841;28;20030;-67
2022/06/10 04:36:45;;;;;;;4.00;2.40;;;;;;;;;;4994721;28;20068;-66
2022/06/10 04:39:11;;;;;;;9.75;2.20;;;;;;;;;;4995219;28;20038;-65
2022/06/10 04:41:37;;;;;;;3.58;2.35;;;;;;;;;;4995206;28;20022;-66
2022/06/10 04:44:03;;;;;;;4.25;2.60;;;;;;;;;;4995225;28;20105;-65
2022/06/10 04:46:35;;;;;;;4.10;2.40;;;;;;;;;;4994986;28;20117;-64
2022/06/10 04:49:02;;;;;;;4.97;2.28;;;;;;;;;;4994342;28;20022;-64
2022/06/10 04:51:27;;;;;;;4.25;2.72;;;;;;;;;;4994989;28;20031;-66
2022/06/10 04:53:53;;;;;;;5.07;2.90;;;;;;;;;;4994928;28;20026;-66
2022/06/10 04:56:19;;;;;;;5.55;3.03;;;;;;;;;;4994891;28;20038;-66
2022/06/10 04:58:45;;;;;;;5.18;2.58;;;;;;;;;;4994059;28;20031;-64
2022/06/10 05:01:11;;;;;;;3.10;2.40;;;;;;;;;;4993952;28;20132;-64
2022/06/10 05:03:36;;;;;;;7.25;3.80;;;;;;;;;;4994211;28;20085;-65
2022/06/10 05:06:03;;;;;;;6.80;3.00;;;;;;;;;;4994139;28;20113;-67
2022/06/10 05:08:29;;;;;;;4.97;2.70;;;;;;;;;;4994890;28;20022;-64
2022/06/10 05:10:54;;;;;;;6.78;2.60;;;;;;;;;;4994761;28;20040;-64
2022/06/10 05:13:23;;;;;;;5.50;2.70;;;;;;;;;;4993990;28;20030;-69
2022/06/10 05:15:50;;;;;;;6.03;2.95;;;;;;;;;;4993578;28;20050;-66
2022/06/10 05:18:19;;;;;;;5.82;3.03;;;;;;;;;;4993820;28;20041;-67
2022/06/10 05:20:46;;;;;;;7.43;2.72;;;;;;;;;;4993936;28;20041;-65
2022/06/10 05:23:16;;;;;;;9.15;3.05;;;;;;;;;;4994402;28;20037;-66
2022/06/10 05:25:42;;;;;;;6.22;3.00;;;;;;;;;;4994539;28;20045;-65
2022/06/10 05:28:09;;;;;;;6.55;2.60;;;;;;;;;;4993154;28;20437;-66
2022/06/10 05:30:35;;;;;;;6.22;2.72;;;;;;;;;;4992232;28;20377;-66
2022/06/10 05:33:02;;;;;;;3.58;2.28;;;;;;;;;;4993730;28;20062;-67
2022/06/10 05:35:29;;;;;;;6.50;2.63;;;;;;;;;;4993529;28;20041;-67
2022/06/10 05:37:55;;;;;;;6.22;2.75;;;;;;;;;;4993675;28;20037;-65
2022/06/10 05:40:23;;;;;;;9.05;3.20;;;;;;;;;;4994287;28;20023;-65
2022/06/10 05:42:49;;;;;;;5.57;2.78;;;;;;;;;;4993919;28;20033;-67
2022/06/10 05:45:17;;;;;;;4.90;2.40;;;;;;;;;;4993787;28;20479;-67
2022/06/10 05:47:45;;;;;;;8.30;2.58;;;;;;;;;;4993906;28;20027;-68
2022/06/10 05:50:32;;;;;;;10.75;2.72;;;;;;;;;;4994008;28;20077;-67
2022/06/10 05:52:58;;;;;;;5.82;2.20;;;;;;;;;;4993682;28;20026;-67
2022/06/10 05:55:24;;;;;;;5.25;2.50;;;;;;;;;;4993687;28;20121;-67
2022/06/10 05:57:51;;;;;;;6.57;2.60;;;;;;;;;;4993748;28;20104;-67
2022/06/10 06:00:26;;;;;;;6.10;2.30;;;;;;;;;;4992909;28;20384;-68
2022/06/10 06:02:51;;;;;;;4.22;2.42;;;;;;;;;;4992928;28;20026;-68
2022/06/10 06:05:18;;;;;;;7.50;2.60;;;;;;;;;;4992985;28;20553;-64
2022/06/10 06:07:45;;;;;;;4.40;2.70;;;;;;;;;;4992966;28;20023;-66
2022/06/10 06:10:16;;;;;;;4.65;2.25;;;;;;;;;;4993781;28;21067;-69
2022/06/10 06:12:43;;;;;;;5.25;2.22;;;;;;;;;;4993607;28;20472;-66
2022/06/10 06:15:09;;;;;;;2.88;2.08;;;;;;;;;;4991944;28;20030;-65
2022/06/10 06:17:35;;;;;;;3.72;2.20;;;;;;;;;;4963586;28;20113;-66
2022/06/10 06:20:01;;;;;;;6.75;2.20;;;;;;;;;;4974345;28;20484;-67
2022/06/10 06:22:26;;;;;;;9.80;2.20;;;;;;;;;;4961936;28;20123;-66
2022/06/10 06:24:53;;;;;;;3.40;1.98;;;;;;;;;;4971544;28;20086;-67
2022/06/10 06:27:19;;;;;;;3.67;1.90;;;;;;;;;;4982722;28;20065;-67
2022/06/10 06:29:45;;;;;;;90.95;13.45;;;;;;;;;;4980709;28;20429;-68
2022/06/10 06:32:11;;;;;;;141.77;21.65;;;;;;;;;;4989807;28;20019;-67
2022/06/10 06:34:38;;;;;;;67.15;11.45;;;;;;;;;;4961456;28;20065;-67
2022/06/10 06:37:04;;;;;;;50.97;9.30;;;;;;;;;;4986259;28;20432;-68
2022/06/10 06:39:30;;;;;;;27.05;5.47;;;;;;;;;;4984357;28;20123;-67
2022/06/10 06:41:56;;;;;;;15.10;4.40;;;;;;;;;;4978596;28;20050;-68
2022/06/10 06:44:22;;;;;;;26.83;4.93;;;;;;;;;;4972549;28;20045;-67
2022/06/10 06:46:48;;;;;;;12.68;3.58;;;;;;;;;;4992396;28;20038;-67
2022/06/10 06:49:21;;;;;;;11.40;3.00;;;;;;;;;;4993625;28;20411;-67
2022/06/10 06:51:48;;;;;;;10.98;3.10;;;;;;;;;;4993558;28;20069;-67
2022/06/10 06:54:14;;;;;;;15.80;3.42;;;;;;;;;;4991457;28;20034;-67
2022/06/10 06:56:39;;;;;;;11.20;2.70;;;;;;;;;;4993046;28;20026;-68
2022/06/10 06:59:06;;;;;;;5.55;2.28;;;;;;;;;;4993135;28;20031;-67
2022/06/10 07:01:32;;;;;;;4.63;2.40;;;;;;;;;;4993484;28;20034;-66
2022/06/10 07:03:58;;;;;;;4.55;2.30;;;;;;;;;;4991283;28;20081;-66
2022/06/10 07:06:24;;;;;;;6.53;2.20;;;;;;;;;;4993111;28;20030;-66
2022/06/10 07:08:50;;;;;;;3.95;1.98;;;;;;;;;;4993195;28;20117;-67
2022/06/10 07:11:18;;;;;;;10.23;2.45;;;;;;;;;;4993694;28;20412;-66
2022/06/10 07:13:44;;;;;;;4.03;2.05;;;;;;;;;;4996969;28;20034;-65
2022/06/10 07:16:10;;;;;;;3.67;2.20;;;;;;;;;;4996943;28;20046;-66
2022/06/10 07:18:36;;;;;;;5.78;2.40;;;;;;;;;;4996842;28;20038;-66
2022/06/10 07:21:03;;;;;;;5.75;1.92;;;;;;;;;;4995909;28;20102;-67
2022/06/10 07:23:28;;;;;;;4.68;2.05;;;;;;;;;;4996911;28;20103;-67
2022/06/10 07:25:55;;;;;;;6.40;1.98;;;;;;;;;;4996892;28;20460;-66
2022/06/10 07:28:21;;;;;;;3.53;1.77;;;;;;;;;;4996968;28;20026;-66
2022/06/10 07:30:46;;;;;;;6.03;1.90;;;;;;;;;;4996923;28;20445;-67
2022/06/10 07:33:12;;;;;;;9.05;1.70;;;;;;;;;;4996752;28;20097;-67
2022/06/10 07:35:39;;;;;;;4.68;1.80;;;;;;;;;;4996817;28;20380;-67
2022/06/10 07:38:06;;;;;;;5.00;1.73;;;;;;;;;;4996754;28;20026;-67
2022/06/10 07:43:20;;;;;;;4.43;1.83;;;;;;;;;;4996930;28;20049;-67
2022/06/10 07:45:46;;;;;;;5.88;2.00;;;;;;;;;;4996849;28;20109;-67
2022/06/10 07:48:13;;;;;;;3.97;1.52;;;;;;;;;;4996548;28;20498;-66
2022/06/10 07:50:43;;;;;;;2.60;1.38;;;;;;;;;;4996491;28;20476;-66
2022/06/10 07:53:09;;;;;;;3.95;1.30;;;;;;;;;;4996652;28;20379;-67
2022/06/10 07:55:36;;;;;;;4.05;1.30;;;;;;;;;;4996173;28;20030;-67
2022/06/10 07:58:02;;;;;;;6.35;1.45;;;;;;;;;;4996500;28;20053;-67
2022/06/10 08:00:28;;;;;;;5.07;1.50;;;;;;;;;;4996516;28;20054;-68
2022/06/10 08:02:53;;;;;;;5.45;1.58;;;;;;;;;;4996206;28;20432;-67
2022/06/10 08:05:19;;;;;;;4.50;1.52;;;;;;;;;;4996371;28;20022;-67
2022/06/10 08:07:45;;;;;;;4.80;1.33;;;;;;;;;;4996367;28;20022;-66
2022/06/10 08:10:34;;;;;;;6.57;1.73;;;;;;;;;;4995967;28;20467;-65
2022/06/10 08:13:00;;;;;;;4.57;1.80;;;;;;;;;;4996228;28;20053;-67
2022/06/10 08:15:27;;;;;;;3.78;1.58;;;;;;;;;;4996018;28;20541;-67
2022/06/10 08:17:52;;;;;;;4.45;1.35;;;;;;;;;;4995876;28;20076;-65
2022/06/10 08:23:14;;;;;;;2.13;1.30;;;;;;;;;;4994643;28;20133;-66
2022/06/10 08:25:40;;;;;;;3.47;1.52;;;;;;;;;;4996150;28;20030;-67
2022/06/10 08:28:06;;;;;;;6.85;2.05;;;;;;;;;;4994706;28;20030;-66
2022/06/10 08:30:31;;;;;;;3.47;1.52;;;;;;;;;;4995837;28;20037;-66
2022/06/10 08:32:56;;;;;;;6.53;1.90;;;;;;;;;;4995742;28;20337;-67
2022/06/10 08:35:22;;;;;;;4.18;1.25;;;;;;;;;;4995691;28;20030;-67
2022/06/10 08:37:47;;;;;;;5.78;1.85;;;;;;;;;;4995730;28;20424;-66
2022/06/10 08:40:23;;;;;;;8.02;2.15;;;;;;;;;;4995485;28;20018;-67
2022/06/10 08:42:52;;;;;;;4.45;1.77;;;;;;;;;;4995652;28;20026;-67
2022/06/10 08:45:26;;;;;;;3.17;1.42;;;;;;;;;;4995413;28;20038;-67
2022/06/10 08:48:10;;;;;;;2.78;1.58;;;;;;;;;;4995561;28;20077;-65
2022/06/10 08:50:48;;;;;;;3.40;1.30;;;;;;;;;;4995592;28;20407;-65
2022/06/10 08:53:51;;;;;;;8.18;2.10;;;;;;;;;;4994928;28;20030;-67
2022/06/10 08:56:31;;;;;;;2.65;1.50;;;;;;;;;;4973668;28;20169;-65
2022/06/10 08:59:22;;;;;;;4.78;1.80;;;;;;;;;;4973893;28;20501;-67
2022/06/10 09:01:48;;;;;;;4.05;1.88;;;;;;;;;;4973953;28;20034;-68
2022/06/10 09:04:19;;;;;;;5.57;2.40;;;;;;;;;;4957561;28;20133;-67
2022/06/10 09:06:50;;;;;;;4.47;1.95;;;;;;;;;;4973742;28;20536;-68
2022/06/10 09:09:20;;;;;;;5.05;1.90;;;;;;;;;;4973117;28;20031;-65
2022/06/10 09:12:03;;;;;;;4.57;1.67;;;;;;;;;;4973635;28;20420;-66
2022/06/10 09:14:29;;;;;;;1.92;1.33;;;;;;;;;;4973724;28;20085;-67
2022/06/10 09:17:20;;;;;;;3.05;1.27;;;;;;;;;;4956860;28;20436;-67
2022/06/10 09:19:51;;;;;;;5.97;1.48;;;;;;;;;;4973456;28;20152;-65
2022/06/10 09:22:48;;;;;;;4.35;1.80;;;;;;;;;;4973089;28;20452;-66
2022/06/10 09:25:23;;;;;;;3.90;1.38;;;;;;;;;;4973390;28;20111;-64
2022/06/10 09:27:54;;;;;;;4.15;1.60;;;;;;;;;;4973248;28;20073;-65
2022/06/10 09:30:22;;;;;;;2.85;1.50;;;;;;;;;;4984530;28;20126;-63
2022/06/10 09:33:05;;;;;;;5.45;1.45;;;;;;;;;;4994435;28;20026;-65
2022/06/10 09:35:55;;;;;;;3.17;1.80;;;;;;;;;;4994094;28;20093;-63
2022/06/10 09:38:36;;;;;;;3.85;1.70;;;;;;;;;;4994378;28;20050;-63
2022/06/10 09:41:20;;;;;;;2.90;1.38;;;;;;;;;;4994595;28;20035;-63
2022/06/10 09:43:54;;;;;;;2.70;1.58;;;;;;;;;;4994535;28;20526;-63
2022/06/10 09:46:29;;;;;;;3.83;1.30;;;;;;;;;;4994186;28;20045;-65
2022/06/10 09:49:32;;;;;;;3.90;1.90;;;;;;;;;;4994328;28;20022;-64
2022/06/10 09:52:09;;;;;;;1.80;1.02;;;;;;;;;;4993849;28;20113;-65
2022/06/10 09:54:49;;;;;;;5.25;1.40;;;;;;;;;;4994284;28;20029;-66
2022/06/10 09:57:25;;;;;;;3.75;1.65;;;;;;;;;;4994160;28;20069;-63
2022/06/10 10:00:07;;;;;;;2.85;1.25;;;;;;;;;;4994208;28;20065;-64
2022/06/10 10:03:01;;;;;;;3.53;1.30;;;;;;;;;;4994052;28;20042;-65
2022/06/10 10:05:49;;;;;;;4.13;1.30;;;;;;;;;;4993919;28;20395;-66
2022/06/10 10:08:34;;;;;;;2.40;1.52;;;;;;;;;;4972383;28;20543;-66
2022/06/10 10:11:10;;;;;;;4.50;1.40;;;;;;;;;;4972624;28;20047;-66
2022/06/10 10:13:38;;;;;;;4.28;1.50;;;;;;;;;;4972414;28;20039;-64
2022/06/10 10:16:23;;;;;;;3.80;1.60;;;;;;;;;;4972110;28;20086;-66
2022/06/10 10:18:58;;;;;;;2.30;1.30;;;;;;;;;;4972239;28;20610;-66
2022/06/10 10:21:33;;;;;;;3.35;1.40;;;;;;;;;;4972119;28;20034;-65
2022/06/10 10:23:59;;;;;;;3.85;1.42;;;;;;;;;;4972258;28;20027;-66
2022/06/10 10:26:37;;;;;;;5.03;1.15;;;;;;;;;;4972160;28;20038;-66
2022/06/10 10:29:11;;;;;;;2.95;1.25;;;;;;;;;;4972105;28;20047;-67
2022/06/10 10:31:43;;;;;;;3.05;1.30;;;;;;;;;;4972169;28;20035;-66
2022/06/10 10:34:22;;;;;;;2.22;1.38;;;;;;;;;;4972332;28;20415;-66
2022/06/10 10:36:55;;;;;;;3.88;1.42;;;;;;;;;;4972165;28;20093;-67
2022/06/10 10:39:35;;;;;;;3.33;1.45;;;;;;;;;;4972117;28;20054;-67
2022/06/10 10:42:06;;;;;;;3.60;1.17;;;;;;;;;;4971919;28;20496;-67
2022/06/10 10:44:32;;;;;;;2.30;1.27;;;;;;;;;;4975513;28;20053;-67
2022/06/10 10:47:11;;;;;;;3.50;1.60;;;;;;;;;;4992892;28;20034;-67
2022/06/10 10:49:39;;;;;;;1.73;1.30;;;;;;;;;;4993427;28;20030;-67
2022/06/10 10:52:17;;;;;;;2.22;1.40;;;;;;;;;;4992960;28;20058;-66
2022/06/10 10:54:45;;;;;;;2.70;1.17;;;;;;;;;;4993324;28;20191;-67
2022/06/10 10:57:31;;;;;;;2.17;1.40;;;;;;;;;;4993327;28;20534;-65
2022/06/10 11:00:06;;;;;;;3.25;1.20;;;;;;;;;;4993371;28;20121;-67
2022/06/10 11:02:37;;;;;;;3.65;1.33;;;;;;;;;;4993173;28;20027;-67
2022/06/10 11:05:18;;;;;;;4.38;1.38;;;;;;;;;;4992900;28;20558;-66
2022/06/10 11:07:45;;;;;;;4.07;1.60;;;;;;;;;;4993098;28;20116;-67
2022/06/10 11:10:22;;;;;;;2.25;1.30;;;;;;;;;;4992932;28;20475;-67
2022/06/10 11:12:49;;;;;;;4.90;1.30;;;;;;;;;;4993185;28;20034;-67
2022/06/10 11:15:30;;;;;;;2.92;1.27;;;;;;;;;;4993145;28;20112;-67
2022/06/10 11:17:58;;;;;;;6.47;2.10;;;;;;;;;;4992698;28;20426;-64
2022/06/10 11:20:34;;;;;;;5.30;1.60;;;;;;;;;;4993275;28;20077;-67
2022/06/10 11:23:21;;;;;;;3.53;1.13;;;;;;;;;;4993171;28;20054;-65
2022/06/10 11:26:06;;;;;;;3.80;1.38;;;;;;;;;;4993270;28;20035;-68
2022/06/10 11:28:37;;;;;;;4.07;1.30;;;;;;;;;;4993136;28;20085;-67
2022/06/10 11:31:16;;;;;;;5.95;1.60;;;;;;;;;;4991819;28;20037;-67
2022/06/10 11:33:45;;;;;;;2.85;1.27;;;;;;;;;;4992763;28;20427;-64
2022/06/10 11:36:13;;;;;;;3.10;1.60;;;;;;;;;;4991548;28;20538;-67
2022/06/10 11:38:53;;;;;;;3.40;1.45;;;;;;;;;;4993045;28;20105;-64
2022/06/10 11:41:24;;;;;;;2.83;1.43;;;;;;;;;;4992963;28;20050;-66
2022/06/10 11:44:21;;;;;;;2.78;1.33;;;;;;;;;;4991561;28;20256;-66
2022/06/10 11:46:58;;;;;;;2.42;1.30;;;;;;;;;;4992889;28;20101;-66
2022/06/10 11:50:11;;;;;;;2.70;1.20;;;;;;;;;;4992913;28;20057;-66
2022/06/10 11:52:47;;;;;;;3.35;1.30;;;;;;;;;;4988168;28;20419;-66
2022/06/10 11:55:19;;;;;;;3.60;1.20;;;;;;;;;;4992887;28;20030;-65
2022/06/10 12:00:53;;;;;;;6.00;1.38;;;;;;;;;;4996814;28;20502;-68
2022/06/10 12:03:39;;;;;;;8.77;1.60;;;;;;;;;;4996236;28;20392;-67
2022/06/10 12:06:23;;;;;;;3.25;1.33;;;;;;;;;;4996547;28;20026;-65
2022/06/10 12:09:01;;;;;;;7.00;1.52;;;;;;;;;;4996063;28;20023;-65
2022/06/10 12:11:50;;;;;;;4.53;1.30;;;;;;;;;;4996112;28;20115;-67
2022/06/10 12:14:38;;;;;;;2.20;1.33;;;;;;;;;;4996230;28;20034;-64
2022/06/10 12:17:22;;;;;;;3.95;1.75;;;;;;;;;;4992127;28;20046;-65
2022/06/10 12:19:54;;;;;;;2.10;1.20;;;;;;;;;;4995965;28;20034;-67
2022/06/10 12:22:19;;;;;;;6.20;1.27;;;;;;;;;;4996066;28;20038;-67
2022/06/10 12:24:49;;;;;;;4.28;1.10;;;;;;;;;;4995925;28;20080;-67
2022/06/10 12:27:30;;;;;;;3.50;1.20;;;;;;;;;;4995869;28;20072;-67
2022/06/10 12:30:22;;;;;;;2.92;1.15;;;;;;;;;;4995916;28;20034;-67
2022/06/10 12:33:03;;;;;;;2.67;1.10;;;;;;;;;;4994639;28;20079;-67
2022/06/10 12:35:34;;;;;;;3.50;1.35;;;;;;;;;;4995684;28;20066;-66
2022/06/10 12:38:26;;;;;;;5.05;1.50;;;;;;;;;;4994209;28;20049;-66
2022/06/10 12:40:58;;;;;;;5.88;1.23;;;;;;;;;;4995625;28;20084;-64
2022/06/10 12:43:29;;;;;;;3.70;1.27;;;;;;;;;;4995530;28;20034;-64
2022/06/10 12:45:59;;;;;;;4.75;1.42;;;;;;;;;;4995360;28;20030;-66
2022/06/10 12:48:29;;;;;;;3.50;1.10;;;;;;;;;;4995473;28;20022;-65
2022/06/10 12:51:13;;;;;;;2.95;1.23;;;;;;;;;;4995560;28;20113;-64
2022/06/10 12:54:02;;;;;;;4.20;1.20;;;;;;;;;;4995367;28;20026;-67
2022/06/10 12:56:32;;;;;;;3.70;1.20;;;;;;;;;;4995254;28;20038;-67
2022/06/10 12:59:04;;;;;;;7.00;1.63;;;;;;;;;;4995356;28;20031;-66
2022/06/10 13:01:29;;;;;;;7.82;1.50;;;;;;;;;;4995126;28;20062;-66
2022/06/10 13:03:56;;;;;;;3.58;1.33;;;;;;;;;;4995369;28;20034;-67
2022/06/10 13:06:30;;;;;;;3.72;1.40;;;;;;;;;;4995153;28;20089;-67
2022/06/10 13:08:57;;;;;;;4.38;1.13;;;;;;;;;;4994646;28;20542;-67
2022/06/10 13:12:00;;;;;;;6.18;1.30;;;;;;;;;;4995047;28;20491;-67
2022/06/10 13:14:35;;;;;;;4.97;1.38;;;;;;;;;;4973361;28;20038;-66
2022/06/10 13:17:24;;;;;;;5.00;1.15;;;;;;;;;;4973080;28;20089;-66
2022/06/10 13:19:53;;;;;;;3.50;1.17;;;;;;;;;;4973431;28;20038;-65
2022/06/10 13:22:21;;;;;;;3.60;1.10;;;;;;;;;;4973203;28;20042;-67
2022/06/10 13:24:52;;;;;;;6.60;1.15;;;;;;;;;;4973271;28;20031;-67
2022/06/10 13:27:27;;;;;;;3.65;1.13;;;;;;;;;;4957087;28;20026;-67
2022/06/10 13:29:59;;;;;;;2.83;1.20;;;;;;;;;;4973021;28;20400;-67
2022/06/10 13:32:25;;;;;;;4.95;1.20;;;;;;;;;;4973241;28;20067;-67
2022/06/10 13:35:03;;;;;;;3.90;1.45;;;;;;;;;;4973033;28;20413;-67
2022/06/10 13:37:33;;;;;;;7.15;1.20;;;;;;;;;;4973077;28;20062;-65
2022/06/10 13:40:01;;;;;;;2.72;1.10;;;;;;;;;;4973183;28;20384;-67
2022/06/10 13:42:36;;;;;;;4.03;1.13;;;;;;;;;;4972903;28;20035;-66
2022/06/10 13:45:40;;;;;;;8.30;1.55;;;;;;;;;;4972528;28;20030;-65
2022/06/10 13:48:20;;;;;;;4.60;1.30;;;;;;;;;;4972805;28;20049;-67
2022/06/10 13:53:54;;;;;;;6.68;1.10;;;;;;;;;;4994305;28;20138;-65
2022/06/10 13:56:33;;;;;;;3.40;1.00;;;;;;;;;;4994053;28;20074;-67
2022/06/10 13:58:59;;;;;;;8.70;1.63;;;;;;;;;;4993899;28;20042;-67
2022/06/10 14:01:33;;;;;;;5.03;1.10;;;;;;;;;;4994062;28;20022;-67
2022/06/10 14:04:09;;;;;;;2.35;1.13;;;;;;;;;;4994341;28;20407;-67
2022/06/10 14:06:48;;;;;;;5.13;1.00;;;;;;;;;;4994114;28;20028;-68
2022/06/10 14:09:35;;;;;;;5.13;1.00;;;;;;;;;;4994194;28;20419;-67
2022/06/10 14:12:09;;;;;;;4.22;1.08;;;;;;;;;;4993461;28;20026;-67
2022/06/10 14:14:38;;;;;;;3.15;1.20;;;;;;;;;;4994089;28;20065;-67
2022/06/10 14:17:24;;;;;;;4.85;1.30;;;;;;;;;;4993561;28;20097;-67
2022/06/10 14:20:10;;;;;;;3.65;1.27;;;;;;;;;;4993848;28;20085;-67
2022/06/10 14:22:35;;;;;;;2.72;0.85;;;;;;;;;;4992959;28;20065;-67
2022/06/10 14:25:13;;;;;;;5.22;1.40;;;;;;;;;;4993551;28;20050;-67
2022/06/10 14:27:48;;;;;;;4.82;1.00;;;;;;;;;;4993460;28;20085;-67
2022/06/10 14:30:17;;;;;;;4.65;1.00;;;;;;;;;;4992559;28;20106;-65
2022/06/10 14:32:51;;;;;;;4.25;1.10;;;;;;;;;;4993368;28;20073;-67
2022/06/10 14:35:28;;;;;;;3.05;0.80;;;;;;;;;;4993514;28;20080;-65
2022/06/10 14:38:18;;;;;;;4.78;1.10;;;;;;;;;;4993575;28;20041;-67
2022/06/10 14:41:03;;;;;;;3.45;1.25;;;;;;;;;;4993569;28;20029;-67
2022/06/10 14:43:36;;;;;;;2.40;1.13;;;;;;;;;;4993350;28;20030;-68
2022/06/10 14:46:17;;;;;;;3.67;1.00;;;;;;;;;;4993603;28;20022;-67
2022/06/10 14:48:44;;;;;;;5.60;1.40;;;;;;;;;;4993447;28;20502;-67
2022/06/10 14:51:20;;;;;;;6.78;1.23;;;;;;;;;;4993430;28;20134;-67
2022/06/10 14:53:52;;;;;;;3.90;1.00;;;;;;;;;;4993511;28;20432;-66
2022/06/10 14:56:42;;;;;;;3.80;0.80;;;;;;;;;;4993059;28;20069;-66
2022/06/10 14:59:27;;;;;;;3.60;1.10;;;;;;;;;;4993496;28;20372;-65
2022/06/10 15:01:58;;;;;;;4.93;1.17;;;;;;;;;;4993116;28;20042;-67
2022/06/10 15:04:23;;;;;;;6.25;1.83;;;;;;;;;;4993454;28;20023;-68
2022/06/10 15:06:55;;;;;;;3.20;1.20;;;;;;;;;;4993228;28;20574;-65
2022/06/10 15:09:35;;;;;;;3.50;1.17;;;;;;;;;;4993130;28;20026;-68
2022/06/10 15:12:15;;;;;;;4.85;1.00;;;;;;;;;;4993033;28;20131;-68
2022/06/10 15:14:41;;;;;;;4.03;1.40;;;;;;;;;;4993238;28;20543;-66
2022/06/10 15:17:13;;;;;;;5.30;1.10;;;;;;;;;;4992742;28;20184;-68
2022/06/10 15:19:39;;;;;;;8.32;1.20;;;;;;;;;;4993266;28;20044;-66
2022/06/10 15:22:05;;;;;;;4.57;1.15;;;;;;;;;;4993011;28;20027;-68
2022/06/10 15:24:31;;;;;;;4.75;1.20;;;;;;;;;;4992833;28;20089;-67
2022/06/10 15:26:58;;;;;;;6.95;1.55;;;;;;;;;;4993175;28;20034;-68
2022/06/10 15:29:26;;;;;;;5.22;1.27;;;;;;;;;;4992977;28;20037;-66
2022/06/10 15:31:54;;;;;;;4.78;1.20;;;;;;;;;;4993157;28;20031;-65
2022/06/10 15:34:20;;;;;;;6.00;1.10;;;;;;;;;;4996831;28;20033;-66